Time;durP1;ratioP1;P1;durP2;ratioP2;P2;SDS_P1;SDS_P2;PMS_P1;PMS_P2;Temp;Humidity;BMP_temperature;BMP_pressure;BME280_temperature;BME280_humidity;BME280_pressure;Samples;Min_cycle;Max_cycle;Signal;HPM_P1;HPM_P2
2021/12/30 00:02:09;;;;;;;10.50;9.50;;;;;;;;;;5099614;28;24390;-55
2021/12/30 00:04:35;;;;;;;10.60;9.57;;;;;;;;;;5101313;28;24421;-56
2021/12/30 00:07:00;;;;;;;10.60;9.57;;;;;;;;;;5103456;28;24416;-55
2021/12/30 00:09:28;;;;;;;9.40;8.50;;;;;;;;;;5103109;28;24425;-55
2021/12/30 00:11:53;;;;;;;10.55;9.55;;;;;;;;;;5097591;28;24728;-54
2021/12/30 00:14:18;;;;;;;10.83;9.73;;;;;;;;;;5097942;28;25004;-55
2021/12/30 00:16:44;;;;;;;11.48;10.15;;;;;;;;;;5101394;28;24400;-56
2021/12/30 00:19:09;;;;;;;10.40;9.40;;;;;;;;;;5103557;28;24494;-56
2021/12/30 00:21:34;;;;;;;10.82;9.73;;;;;;;;;;5099068;28;24397;-57
2021/12/30 00:23:59;;;;;;;10.33;9.23;;;;;;;;;;5099582;28;24436;-56
2021/12/30 00:26:25;;;;;;;10.57;9.47;;;;;;;;;;5097966;28;25216;-56
2021/12/30 00:28:50;;;;;;;11.37;10.27;;;;;;;;;;5099800;28;24404;-57
2021/12/30 00:31:15;;;;;;;11.07;9.83;;;;;;;;;;5102839;28;24425;-57
2021/12/30 00:33:41;;;;;;;11.35;9.70;;;;;;;;;;5101271;28;24977;-55
2021/12/30 00:36:07;;;;;;;11.80;10.60;;;;;;;;;;5102718;28;24406;-55
2021/12/30 00:38:33;;;;;;;12.40;10.60;;;;;;;;;;5094996;28;24994;-55
2021/12/30 00:40:58;;;;;;;11.80;10.60;;;;;;;;;;5079272;28;24410;-55
2021/12/30 00:43:24;;;;;;;12.40;11.20;;;;;;;;;;5077090;28;24497;-55
2021/12/30 00:45:49;;;;;;;12.50;11.20;;;;;;;;;;5094760;28;24526;-55
2021/12/30 00:48:14;;;;;;;13.37;12.07;;;;;;;;;;5102983;28;24788;-55
2021/12/30 00:50:40;;;;;;;12.70;11.40;;;;;;;;;;5101113;28;24880;-55
2021/12/30 00:53:06;;;;;;;12.63;11.43;;;;;;;;;;5103422;28;24427;-54
2021/12/30 00:55:31;;;;;;;12.90;11.52;;;;;;;;;;5103878;28;24772;-55
2021/12/30 00:57:57;;;;;;;12.50;11.20;;;;;;;;;;5101056;28;24979;-55
2021/12/30 01:00:22;;;;;;;13.20;11.60;;;;;;;;;;5106852;28;24482;-55
2021/12/30 01:02:48;;;;;;;12.40;11.10;;;;;;;;;;5105406;28;24829;-55
2021/12/30 01:05:13;;;;;;;11.80;10.60;;;;;;;;;;5106809;28;24532;-55
2021/12/30 01:07:38;;;;;;;12.73;11.52;;;;;;;;;;5100995;28;24436;-55
2021/12/30 01:10:04;;;;;;;12.60;11.30;;;;;;;;;;5103257;28;24421;-55
2021/12/30 01:12:29;;;;;;;12.30;11.00;;;;;;;;;;5100970;28;24382;-55
2021/12/30 01:14:55;;;;;;;11.63;10.53;;;;;;;;;;5106561;28;24417;-55
2021/12/30 01:17:38;;;;;;;11.50;10.30;;;;;;;;;;5107001;28;24954;-56
2021/12/30 01:20:03;;;;;;;11.90;10.70;;;;;;;;;;5106706;28;24596;-56
2021/12/30 01:22:29;;;;;;;11.17;10.07;;;;;;;;;;5102617;28;24500;-55
2021/12/30 01:24:54;;;;;;;11.23;10.03;;;;;;;;;;5101053;28;24443;-56
2021/12/30 01:27:19;;;;;;;11.60;10.30;;;;;;;;;;5102835;28;25022;-56
2021/12/30 01:29:45;;;;;;;11.27;10.18;;;;;;;;;;5103129;28;24397;-56
2021/12/30 01:32:10;;;;;;;11.60;10.45;;;;;;;;;;5106437;28;24413;-55
2021/12/30 01:34:36;;;;;;;12.30;11.10;;;;;;;;;;5103373;28;24991;-56
2021/12/30 01:37:03;;;;;;;12.45;11.25;;;;;;;;;;5102938;28;24954;-59
2021/12/30 01:39:28;;;;;;;12.07;10.88;;;;;;;;;;5101072;28;24958;-56
2021/12/30 01:41:54;;;;;;;14.73;13.13;;;;;;;;;;5104451;28;24389;-56
2021/12/30 01:44:20;;;;;;;13.35;12.05;;;;;;;;;;5105775;28;25103;-56
2021/12/30 01:46:45;;;;;;;11.93;10.63;;;;;;;;;;5104612;28;24424;-56
2021/12/30 01:49:11;;;;;;;16.17;13.73;;;;;;;;;;5103598;28;24485;-56
2021/12/30 01:51:37;;;;;;;14.85;12.68;;;;;;;;;;5100714;28;24448;-56
2021/12/30 01:54:02;;;;;;;17.90;13.97;;;;;;;;;;5102342;28;24894;-56
2021/12/30 01:56:28;;;;;;;14.20;12.70;;;;;;;;;;5104103;28;24943;-56
2021/12/30 01:58:53;;;;;;;13.50;11.80;;;;;;;;;;5106321;28;24451;-56
2021/12/30 02:01:19;;;;;;;13.50;11.77;;;;;;;;;;5105501;28;24416;-56
2021/12/30 02:03:45;;;;;;;13.90;12.07;;;;;;;;;;5098588;28;25050;-56
2021/12/30 02:06:10;;;;;;;12.73;11.40;;;;;;;;;;5104449;28;24402;-56
2021/12/30 02:08:35;;;;;;;13.70;11.80;;;;;;;;;;5103927;28;24409;-57
2021/12/30 02:11:00;;;;;;;12.65;11.43;;;;;;;;;;5105696;28;24472;-56
2021/12/30 02:13:26;;;;;;;12.73;11.43;;;;;;;;;;5105399;28;24447;-56
2021/12/30 02:15:51;;;;;;;13.57;12.17;;;;;;;;;;5100249;28;24386;-56
2021/12/30 02:18:17;;;;;;;14.52;13.02;;;;;;;;;;5099808;28;24414;-57
2021/12/30 02:20:49;;;;;;;13.50;11.70;;;;;;;;;;5105870;28;24405;-57
2021/12/30 02:23:17;;;;;;;13.45;12.13;;;;;;;;;;5105453;28;24431;-56
2021/12/30 02:25:42;;;;;;;13.55;11.93;;;;;;;;;;5101515;28;24469;-56
2021/12/30 02:28:09;;;;;;;12.80;11.40;;;;;;;;;;5101560;28;24401;-55
2021/12/30 02:30:34;;;;;;;15.00;13.40;;;;;;;;;;5101494;28;24406;-55
2021/12/30 02:32:59;;;;;;;13.93;11.85;;;;;;;;;;5104972;28;24429;-55
2021/12/30 02:35:24;;;;;;;12.80;11.35;;;;;;;;;;5100739;28;24948;-55
2021/12/30 02:37:50;;;;;;;13.10;11.70;;;;;;;;;;5081436;28;24439;-55
2021/12/30 02:40:22;;;;;;;13.90;12.40;;;;;;;;;;5081151;28;24440;-57
2021/12/30 02:42:47;;;;;;;12.80;11.50;;;;;;;;;;5084622;28;25098;-56
2021/12/30 02:45:13;;;;;;;14.40;12.90;;;;;;;;;;5091948;28;24518;-55
2021/12/30 02:47:38;;;;;;;11.98;10.63;;;;;;;;;;5104734;28;24766;-55
2021/12/30 02:50:03;;;;;;;12.77;11.47;;;;;;;;;;5101107;28;24394;-55
2021/12/30 02:52:28;;;;;;;12.93;11.63;;;;;;;;;;5099495;28;24408;-56
2021/12/30 02:54:54;;;;;;;12.88;11.57;;;;;;;;;;5102747;28;25303;-56
2021/12/30 02:57:19;;;;;;;16.03;13.00;;;;;;;;;;5104258;28;24462;-56
2021/12/30 02:59:44;;;;;;;13.50;12.10;;;;;;;;;;5103194;28;24780;-56
2021/12/30 03:02:09;;;;;;;14.80;12.40;;;;;;;;;;5102632;28;24428;-56
2021/12/30 03:04:35;;;;;;;14.13;12.15;;;;;;;;;;5100654;28;24962;-56
2021/12/30 03:07:00;;;;;;;15.60;13.87;;;;;;;;;;5101407;28;24417;-56
2021/12/30 03:09:25;;;;;;;13.63;12.07;;;;;;;;;;5104405;28;24406;-56
2021/12/30 03:11:50;;;;;;;15.50;12.40;;;;;;;;;;5102283;28;24833;-56
2021/12/30 03:14:16;;;;;;;13.40;12.00;;;;;;;;;;5104756;28;24406;-56
2021/12/30 03:16:42;;;;;;;13.60;11.93;;;;;;;;;;5102481;28;24393;-56
2021/12/30 03:19:08;;;;;;;15.90;13.10;;;;;;;;;;5098924;28;24775;-56
2021/12/30 03:21:33;;;;;;;13.50;12.10;;;;;;;;;;5100544;28;24927;-56
2021/12/30 03:24:00;;;;;;;15.97;13.40;;;;;;;;;;5100458;28;24819;-56
2021/12/30 03:26:25;;;;;;;13.30;11.98;;;;;;;;;;5104037;28;24543;-56
2021/12/30 03:28:50;;;;;;;13.20;11.80;;;;;;;;;;5100603;28;24869;-56
2021/12/30 03:31:17;;;;;;;12.90;11.30;;;;;;;;;;5100701;28;24823;-55
2021/12/30 03:33:42;;;;;;;15.60;13.05;;;;;;;;;;5099229;28;24386;-56
2021/12/30 03:36:08;;;;;;;13.70;12.30;;;;;;;;;;5101405;28;24421;-56
2021/12/30 03:38:35;;;;;;;14.90;12.30;;;;;;;;;;5102207;28;24425;-56
2021/12/30 03:41:01;;;;;;;14.15;12.38;;;;;;;;;;5104264;28;24393;-56
2021/12/30 03:43:26;;;;;;;14.45;12.73;;;;;;;;;;5102301;28;24736;-55
2021/12/30 03:45:52;;;;;;;16.95;14.82;;;;;;;;;;5098051;28;24406;-55
2021/12/30 03:48:17;;;;;;;14.67;12.67;;;;;;;;;;5103790;28;24418;-56
2021/12/30 03:50:44;;;;;;;13.30;11.90;;;;;;;;;;5102472;28;24491;-55
2021/12/30 03:53:11;;;;;;;13.15;11.68;;;;;;;;;;5100433;28;24393;-56
2021/12/30 03:55:36;;;;;;;14.02;12.52;;;;;;;;;;5097914;28;24420;-55
2021/12/30 03:58:01;;;;;;;14.60;12.50;;;;;;;;;;5100272;28;24429;-56
2021/12/30 04:00:27;;;;;;;18.23;15.10;;;;;;;;;;5103938;28;24474;-56
2021/12/30 04:02:52;;;;;;;12.55;11.25;;;;;;;;;;5101598;28;24436;-56
2021/12/30 04:05:18;;;;;;;13.03;11.63;;;;;;;;;;5099750;28;24971;-55
2021/12/30 04:07:43;;;;;;;15.45;12.52;;;;;;;;;;5097854;28;24410;-56
2021/12/30 04:10:09;;;;;;;14.17;12.33;;;;;;;;;;5101955;28;24477;-55
2021/12/30 04:12:35;;;;;;;14.25;12.00;;;;;;;;;;5101389;28;24410;-56
2021/12/30 04:15:01;;;;;;;14.30;12.80;;;;;;;;;;5103815;28;24989;-56
2021/12/30 04:17:26;;;;;;;14.10;12.60;;;;;;;;;;5099934;28;24406;-55
2021/12/30 04:19:51;;;;;;;13.60;11.40;;;;;;;;;;5098214;28;24409;-55
2021/12/30 04:22:18;;;;;;;14.30;12.80;;;;;;;;;;5101386;28;24433;-55
2021/12/30 04:24:44;;;;;;;16.98;13.85;;;;;;;;;;5101266;28;24466;-55
2021/12/30 04:27:09;;;;;;;14.45;12.77;;;;;;;;;;5100971;28;25333;-55
2021/12/30 04:29:34;;;;;;;14.57;11.98;;;;;;;;;;5099982;28;24728;-55
2021/12/30 04:31:59;;;;;;;12.45;11.20;;;;;;;;;;5101133;28;24406;-55
2021/12/30 04:34:24;;;;;;;12.00;10.80;;;;;;;;;;5084734;28;24468;-55
2021/12/30 04:36:50;;;;;;;13.68;11.43;;;;;;;;;;5081056;28;24764;-56
2021/12/30 04:39:15;;;;;;;10.70;9.30;;;;;;;;;;5082795;28;24547;-56
2021/12/30 04:41:40;;;;;;;9.80;8.80;;;;;;;;;;5081182;28;24951;-56
2021/12/30 04:44:05;;;;;;;10.07;8.43;;;;;;;;;;5079361;28;24732;-56
2021/12/30 04:46:33;;;;;;;9.87;8.87;;;;;;;;;;5099422;28;25095;-56
2021/12/30 04:48:58;;;;;;;9.25;8.32;;;;;;;;;;5103597;28;24398;-57
2021/12/30 04:51:23;;;;;;;8.77;7.95;;;;;;;;;;5102882;28;24397;-56
2021/12/30 04:53:48;;;;;;;9.00;8.10;;;;;;;;;;5097040;28;24420;-56
2021/12/30 04:56:13;;;;;;;9.10;7.75;;;;;;;;;;5097372;28;24401;-56
2021/12/30 04:58:38;;;;;;;7.72;6.93;;;;;;;;;;5101126;28;24648;-56
2021/12/30 05:01:04;;;;;;;7.20;6.50;;;;;;;;;;5103325;28;24431;-55
2021/12/30 05:03:29;;;;;;;7.23;6.43;;;;;;;;;;5102941;28;24528;-56
2021/12/30 05:05:55;;;;;;;6.80;6.20;;;;;;;;;;5100057;28;24496;-56
2021/12/30 05:08:21;;;;;;;6.85;6.15;;;;;;;;;;5097874;28;24397;-55
2021/12/30 05:10:47;;;;;;;6.22;5.60;;;;;;;;;;5097222;28;24417;-55
2021/12/30 05:13:13;;;;;;;6.40;5.68;;;;;;;;;;5101142;28;24489;-55
2021/12/30 05:15:39;;;;;;;5.80;5.30;;;;;;;;;;5101093;28;24478;-56
2021/12/30 05:18:05;;;;;;;6.70;6.00;;;;;;;;;;5103370;28;24450;-55
2021/12/30 05:20:30;;;;;;;5.30;4.70;;;;;;;;;;5102814;28;24459;-55
2021/12/30 05:22:56;;;;;;;5.80;5.30;;;;;;;;;;5096813;28;24418;-56
2021/12/30 05:25:21;;;;;;;5.27;4.77;;;;;;;;;;5098991;28;24939;-56
2021/12/30 05:27:47;;;;;;;5.20;4.70;;;;;;;;;;5100837;28;24436;-55
2021/12/30 05:30:13;;;;;;;4.60;4.10;;;;;;;;;;5102963;28;25031;-56
2021/12/30 05:32:39;;;;;;;5.70;5.17;;;;;;;;;;5102961;28;24756;-56
2021/12/30 05:35:05;;;;;;;4.60;4.20;;;;;;;;;;5100340;28;24960;-57
2021/12/30 05:37:30;;;;;;;5.00;3.97;;;;;;;;;;5099049;28;24547;-56
2021/12/30 05:39:55;;;;;;;4.20;3.80;;;;;;;;;;5101067;28;24406;-56
2021/12/30 05:42:22;;;;;;;4.30;4.00;;;;;;;;;;5106518;28;24405;-56
2021/12/30 05:44:48;;;;;;;4.68;4.22;;;;;;;;;;5104413;28;25086;-56
2021/12/30 05:47:13;;;;;;;4.55;3.92;;;;;;;;;;5106181;28;24445;-56
2021/12/30 05:49:39;;;;;;;3.60;3.30;;;;;;;;;;5100836;28;24442;-56
2021/12/30 05:52:04;;;;;;;4.68;3.80;;;;;;;;;;5102614;28;24382;-56
2021/12/30 05:54:29;;;;;;;4.27;3.83;;;;;;;;;;5102987;28;24405;-56
2021/12/30 05:56:54;;;;;;;4.13;3.80;;;;;;;;;;5105861;28;24460;-56
2021/12/30 05:59:19;;;;;;;4.00;3.60;;;;;;;;;;5106200;28;24427;-55
2021/12/30 06:01:44;;;;;;;3.90;3.50;;;;;;;;;;5104389;28;24505;-56
2021/12/30 06:04:10;;;;;;;3.90;3.60;;;;;;;;;;5104201;28;24424;-55
2021/12/30 06:06:35;;;;;;;4.07;3.67;;;;;;;;;;5102328;28;24764;-56
2021/12/30 06:09:00;;;;;;;4.18;3.65;;;;;;;;;;5104165;28;24467;-56
2021/12/30 06:11:25;;;;;;;5.28;4.20;;;;;;;;;;5105848;28;24448;-55
2021/12/30 06:13:50;;;;;;;5.07;4.00;;;;;;;;;;5104537;28;24924;-56
2021/12/30 06:16:15;;;;;;;6.00;4.03;;;;;;;;;;5100097;28;24397;-56
2021/12/30 06:18:40;;;;;;;3.80;3.50;;;;;;;;;;5102234;28;24488;-57
2021/12/30 06:21:06;;;;;;;4.68;4.15;;;;;;;;;;5105956;28;24466;-57
2021/12/30 06:23:31;;;;;;;4.17;3.70;;;;;;;;;;5105722;28;24502;-57
2021/12/30 06:25:56;;;;;;;4.10;3.40;;;;;;;;;;5103282;28;24443;-55
2021/12/30 06:28:21;;;;;;;4.30;3.70;;;;;;;;;;5102227;28;24489;-56
2021/12/30 06:30:46;;;;;;;3.90;3.20;;;;;;;;;;5094036;28;24405;-56
2021/12/30 06:33:11;;;;;;;5.10;3.63;;;;;;;;;;5097626;28;25032;-56
2021/12/30 06:35:37;;;;;;;4.47;3.57;;;;;;;;;;5103064;28;24539;-56
2021/12/30 06:38:02;;;;;;;4.37;3.30;;;;;;;;;;5105203;28;24394;-56
2021/12/30 06:40:28;;;;;;;6.10;3.50;;;;;;;;;;5105316;28;24474;-56
2021/12/30 06:42:53;;;;;;;3.80;3.40;;;;;;;;;;5101460;28;24744;-56
2021/12/30 06:45:18;;;;;;;4.80;3.80;;;;;;;;;;5099430;28;24444;-56
2021/12/30 06:47:44;;;;;;;4.13;3.70;;;;;;;;;;5105280;28;24451;-57
2021/12/30 06:50:12;;;;;;;5.07;3.55;;;;;;;;;;5104779;28;24462;-57
2021/12/30 06:52:37;;;;;;;3.80;3.28;;;;;;;;;;5103076;28;24486;-57
2021/12/30 06:55:02;;;;;;;4.60;3.70;;;;;;;;;;5103523;28;24528;-57
2021/12/30 06:57:28;;;;;;;5.13;4.40;;;;;;;;;;5100819;28;24406;-56
2021/12/30 06:59:53;;;;;;;3.93;3.53;;;;;;;;;;5101142;28;24534;-56
2021/12/30 07:02:19;;;;;;;7.27;4.50;;;;;;;;;;5105089;28;24414;-55
2021/12/30 07:04:44;;;;;;;6.73;4.90;;;;;;;;;;5103092;28;24429;-57
2021/12/30 07:07:09;;;;;;;5.33;4.30;;;;;;;;;;5104689;28;24471;-57
2021/12/30 07:09:34;;;;;;;5.90;4.23;;;;;;;;;;5100908;28;24840;-57
2021/12/30 07:11:59;;;;;;;4.50;4.00;;;;;;;;;;5101046;28;24397;-55
2021/12/30 07:14:25;;;;;;;5.90;4.10;;;;;;;;;;5104803;28;24407;-56
2021/12/30 07:16:51;;;;;;;7.00;3.97;;;;;;;;;;5102317;28;24508;-55
2021/12/30 07:19:16;;;;;;;4.70;4.20;;;;;;;;;;5104504;28;24466;-57
2021/12/30 07:21:41;;;;;;;4.68;3.70;;;;;;;;;;5102343;28;24505;-57
2021/12/30 07:24:07;;;;;;;5.00;4.10;;;;;;;;;;5099198;28;24401;-56
2021/12/30 07:26:32;;;;;;;4.50;4.10;;;;;;;;;;5100707;28;24467;-56
2021/12/30 07:28:57;;;;;;;4.90;3.70;;;;;;;;;;5101148;28;24410;-56
2021/12/30 07:31:22;;;;;;;6.90;3.90;;;;;;;;;;5084126;28;24390;-56
2021/12/30 07:33:47;;;;;;;4.60;3.63;;;;;;;;;;5101048;28;25017;-54
2021/12/30 07:36:12;;;;;;;4.28;3.40;;;;;;;;;;5100175;28;25022;-57
2021/12/30 07:38:38;;;;;;;5.45;4.20;;;;;;;;;;5100573;28;24409;-56
2021/12/30 07:41:04;;;;;;;5.10;3.80;;;;;;;;;;5103891;28;24394;-55
2021/12/30 07:43:29;;;;;;;3.85;3.33;;;;;;;;;;5103992;28;24469;-56
2021/12/30 07:45:54;;;;;;;5.93;4.37;;;;;;;;;;5101742;28;24406;-56
2021/12/30 07:48:20;;;;;;;4.33;3.90;;;;;;;;;;5098605;28;24481;-56
2021/12/30 07:50:45;;;;;;;4.00;3.60;;;;;;;;;;5098250;28;24974;-56
2021/12/30 07:53:10;;;;;;;5.32;3.97;;;;;;;;;;5103757;28;25103;-56
2021/12/30 07:55:35;;;;;;;3.83;3.53;;;;;;;;;;5101743;28;24931;-56
2021/12/30 07:58:01;;;;;;;3.80;3.40;;;;;;;;;;5103920;28;24508;-56
2021/12/30 08:00:26;;;;;;;6.80;4.00;;;;;;;;;;5098512;28;24401;-56
2021/12/30 08:02:51;;;;;;;5.33;3.73;;;;;;;;;;5098760;28;25144;-56
2021/12/30 08:05:17;;;;;;;4.87;3.40;;;;;;;;;;5103243;28;24432;-56
2021/12/30 08:07:45;;;;;;;5.38;4.05;;;;;;;;;;5101520;28;24958;-56
2021/12/30 08:10:14;;;;;;;5.80;3.78;;;;;;;;;;5104256;28;25023;-56
2021/12/30 08:12:39;;;;;;;5.90;4.07;;;;;;;;;;5098052;28;24410;-56
2021/12/30 08:15:06;;;;;;;5.20;4.30;;;;;;;;;;5099721;28;24475;-56
2021/12/30 08:17:31;;;;;;;5.80;3.83;;;;;;;;;;5101317;28;25027;-56
2021/12/30 08:19:56;;;;;;;8.83;5.10;;;;;;;;;;5103499;28;24949;-56
2021/12/30 08:22:21;;;;;;;7.13;5.00;;;;;;;;;;5103095;28;24406;-56
2021/12/30 08:24:46;;;;;;;3.90;3.50;;;;;;;;;;5100012;28;24489;-56
2021/12/30 08:27:12;;;;;;;4.20;3.42;;;;;;;;;;5099155;28;24931;-56
2021/12/30 08:29:37;;;;;;;5.27;4.30;;;;;;;;;;5091901;28;24848;-56
2021/12/30 08:32:06;;;;;;;4.83;3.53;;;;;;;;;;5103161;28;24435;-56
2021/12/30 08:34:31;;;;;;;3.90;3.50;;;;;;;;;;5099607;28;24737;-55
2021/12/30 08:36:56;;;;;;;4.35;3.95;;;;;;;;;;5096998;28;24958;-56
2021/12/30 08:39:21;;;;;;;5.13;3.97;;;;;;;;;;5101606;28;24544;-56
2021/12/30 08:41:46;;;;;;;4.80;3.50;;;;;;;;;;5101337;28;24429;-56
2021/12/30 08:44:11;;;;;;;4.15;3.58;;;;;;;;;;5103476;28;24501;-56
2021/12/30 08:46:36;;;;;;;4.30;3.73;;;;;;;;;;5100932;28;24418;-56
2021/12/30 08:49:02;;;;;;;5.13;4.35;;;;;;;;;;5101221;28;24513;-56
2021/12/30 08:51:27;;;;;;;5.67;3.90;;;;;;;;;;5099800;28;24409;-56
2021/12/30 08:53:52;;;;;;;4.05;3.65;;;;;;;;;;5099101;28;24473;-57
2021/12/30 08:56:17;;;;;;;5.40;3.80;;;;;;;;;;5103012;28;24484;-56
2021/12/30 08:58:43;;;;;;;4.07;3.43;;;;;;;;;;5101774;28;24529;-57
2021/12/30 09:01:08;;;;;;;4.60;3.90;;;;;;;;;;5102945;28;24405;-57
2021/12/30 09:03:34;;;;;;;6.60;5.00;;;;;;;;;;5098867;28;24442;-58
2021/12/30 09:05:59;;;;;;;5.00;4.30;;;;;;;;;;5099159;28;24396;-57
2021/12/30 09:08:24;;;;;;;5.43;3.60;;;;;;;;;;5100692;28;25327;-57
2021/12/30 09:10:50;;;;;;;4.10;3.30;;;;;;;;;;5102798;28;24378;-56
2021/12/30 09:13:16;;;;;;;4.53;3.63;;;;;;;;;;5104767;28;24389;-56
2021/12/30 09:15:41;;;;;;;4.07;3.20;;;;;;;;;;5103498;28;24389;-57
2021/12/30 09:18:07;;;;;;;3.73;3.37;;;;;;;;;;5100383;28;24414;-56
2021/12/30 09:20:33;;;;;;;3.85;3.15;;;;;;;;;;5106910;28;24404;-57
2021/12/30 09:22:58;;;;;;;3.95;3.35;;;;;;;;;;5104984;28;24422;-57
2021/12/30 09:25:24;;;;;;;4.10;3.27;;;;;;;;;;5103598;28;24442;-57
2021/12/30 09:27:50;;;;;;;3.50;3.20;;;;;;;;;;5101132;28;24417;-56
2021/12/30 09:30:16;;;;;;;4.30;3.20;;;;;;;;;;5104482;28;24820;-56
2021/12/30 09:32:42;;;;;;;4.97;3.30;;;;;;;;;;5104610;28;24402;-56
2021/12/30 09:35:08;;;;;;;3.97;3.30;;;;;;;;;;5106525;28;24406;-56
2021/12/30 09:37:33;;;;;;;3.80;3.40;;;;;;;;;;5101051;28;24495;-56
2021/12/30 09:39:59;;;;;;;3.50;3.20;;;;;;;;;;5102695;28;25000;-56
2021/12/30 09:42:25;;;;;;;3.47;3.17;;;;;;;;;;5101151;28;24462;-56
2021/12/30 09:44:50;;;;;;;3.53;3.20;;;;;;;;;;5106258;28;24413;-57
2021/12/30 09:47:15;;;;;;;3.60;3.23;;;;;;;;;;5105910;28;24429;-57
2021/12/30 09:49:40;;;;;;;3.60;3.20;;;;;;;;;;5106709;28;24409;-57
2021/12/30 09:52:06;;;;;;;4.23;3.40;;;;;;;;;;5100721;28;24447;-57
2021/12/30 09:54:31;;;;;;;4.70;3.40;;;;;;;;;;5102340;28;24435;-57
2021/12/30 09:56:56;;;;;;;3.40;3.00;;;;;;;;;;5106121;28;24811;-56
2021/12/30 09:59:23;;;;;;;5.63;3.67;;;;;;;;;;5106316;28;24424;-58
2021/12/30 10:01:48;;;;;;;3.50;3.03;;;;;;;;;;5104263;28;24930;-56
2021/12/30 10:04:14;;;;;;;3.10;2.80;;;;;;;;;;5102038;28;24445;-56
2021/12/30 10:06:47;;;;;;;3.47;3.10;;;;;;;;;;5101963;28;24512;-56
2021/12/30 10:09:14;;;;;;;3.83;3.20;;;;;;;;;;5105958;28;24390;-56
2021/12/30 10:11:47;;;;;;;5.78;3.20;;;;;;;;;;5104201;28;24401;-56
2021/12/30 10:14:12;;;;;;;4.22;2.90;;;;;;;;;;5106014;28;24437;-57
2021/12/30 10:16:38;;;;;;;3.33;2.80;;;;;;;;;;5100068;28;25201;-57
2021/12/30 10:19:05;;;;;;;4.70;2.50;;;;;;;;;;5100083;28;24421;-57
2021/12/30 10:21:30;;;;;;;6.22;3.40;;;;;;;;;;5101809;28;24418;-57
2021/12/30 10:23:57;;;;;;;4.43;2.90;;;;;;;;;;5103604;28;24408;-56
2021/12/30 10:26:22;;;;;;;2.97;2.53;;;;;;;;;;5105285;28;24425;-56
2021/12/30 10:28:48;;;;;;;4.30;2.50;;;;;;;;;;5103559;28;24962;-56
2021/12/30 10:31:16;;;;;;;3.78;2.47;;;;;;;;;;5100621;28;24412;-56
2021/12/30 10:33:47;;;;;;;2.60;2.30;;;;;;;;;;5102024;28;24480;-56
2021/12/30 10:36:16;;;;;;;3.30;2.30;;;;;;;;;;5105707;28;24397;-56
2021/12/30 10:38:41;;;;;;;2.92;2.20;;;;;;;;;;5103968;28;24481;-56
2021/12/30 10:41:06;;;;;;;3.63;2.20;;;;;;;;;;5099534;28;24427;-57
2021/12/30 10:43:45;;;;;;;2.63;2.20;;;;;;;;;;5101289;28;25064;-57
2021/12/30 10:46:10;;;;;;;3.43;2.60;;;;;;;;;;5103304;28;24961;-57
2021/12/30 10:48:44;;;;;;;3.40;2.20;;;;;;;;;;5105442;28;24401;-57
2021/12/30 10:51:10;;;;;;;2.57;2.00;;;;;;;;;;5103571;28;24778;-57
2021/12/30 10:53:37;;;;;;;3.87;2.10;;;;;;;;;;5103686;28;24406;-57
2021/12/30 10:56:17;;;;;;;3.65;2.00;;;;;;;;;;5099360;28;24520;-57
2021/12/30 10:58:42;;;;;;;2.78;2.00;;;;;;;;;;5101190;28;24394;-57
2021/12/30 11:01:15;;;;;;;1.90;1.40;;;;;;;;;;5102950;28;24392;-56
2021/12/30 11:03:42;;;;;;;2.00;1.80;;;;;;;;;;5103043;28;24520;-56
2021/12/30 11:06:16;;;;;;;2.10;1.90;;;;;;;;;;5104552;28;24418;-56
2021/12/30 11:08:42;;;;;;;4.20;2.40;;;;;;;;;;5104169;28;24416;-56
2021/12/30 11:11:28;;;;;;;3.25;2.15;;;;;;;;;;5099262;28;24409;-56
2021/12/30 11:14:07;;;;;;;3.17;1.90;;;;;;;;;;5099405;28;24406;-57
2021/12/30 11:16:32;;;;;;;2.70;1.85;;;;;;;;;;5104787;28;24862;-57
2021/12/30 11:18:58;;;;;;;2.13;1.70;;;;;;;;;;5102830;28;25070;-56
2021/12/30 11:21:36;;;;;;;2.80;1.93;;;;;;;;;;5100676;28;24405;-57
2021/12/30 11:24:01;;;;;;;4.00;1.90;;;;;;;;;;5097036;28;24395;-56
2021/12/30 11:26:27;;;;;;;2.23;1.63;;;;;;;;;;5082127;28;24438;-56
2021/12/30 11:28:52;;;;;;;3.23;1.73;;;;;;;;;;5089837;28;24490;-56
2021/12/30 11:31:17;;;;;;;2.70;2.00;;;;;;;;;;5104325;28;24551;-57
2021/12/30 11:33:43;;;;;;;3.03;1.90;;;;;;;;;;5100495;28;24891;-57
2021/12/30 11:36:08;;;;;;;2.07;1.80;;;;;;;;;;5098669;28;25171;-57
2021/12/30 11:38:33;;;;;;;2.83;1.50;;;;;;;;;;5100535;28;24764;-57
2021/12/30 11:40:58;;;;;;;3.60;1.90;;;;;;;;;;5103745;28;24459;-56
2021/12/30 11:43:23;;;;;;;2.10;1.77;;;;;;;;;;5104263;28;24406;-57
2021/12/30 11:45:49;;;;;;;3.60;1.80;;;;;;;;;;5100599;28;24382;-56
2021/12/30 11:48:27;;;;;;;1.80;1.55;;;;;;;;;;5097930;28;24994;-56
2021/12/30 11:51:07;;;;;;;1.80;1.50;;;;;;;;;;5100395;28;24875;-57
2021/12/30 11:53:32;;;;;;;2.97;1.48;;;;;;;;;;5103764;28;24406;-56
2021/12/30 11:55:58;;;;;;;1.80;1.63;;;;;;;;;;5100237;28;24486;-56
2021/12/30 11:58:31;;;;;;;2.00;1.40;;;;;;;;;;5098445;28;24496;-56
2021/12/30 12:00:58;;;;;;;1.70;1.50;;;;;;;;;;5103776;28;24480;-56
2021/12/30 12:03:26;;;;;;;2.38;1.60;;;;;;;;;;5103495;28;24962;-57
2021/12/30 12:05:53;;;;;;;1.70;1.60;;;;;;;;;;5101985;28;24521;-57
2021/12/30 12:08:18;;;;;;;2.20;1.30;;;;;;;;;;5100017;28;24413;-57
2021/12/30 12:10:45;;;;;;;1.90;1.50;;;;;;;;;;5099673;28;24390;-57
2021/12/30 12:13:31;;;;;;;1.40;1.30;;;;;;;;;;5099896;28;24921;-57
2021/12/30 12:15:59;;;;;;;1.40;1.30;;;;;;;;;;5103726;28;24390;-56
2021/12/30 12:18:25;;;;;;;1.20;1.10;;;;;;;;;;5102816;28;24436;-57
2021/12/30 12:20:52;;;;;;;1.10;1.00;;;;;;;;;;5099919;28;24923;-57
2021/12/30 12:23:28;;;;;;;1.00;1.00;;;;;;;;;;5097594;28;24397;-56
2021/12/30 12:26:14;;;;;;;1.23;1.13;;;;;;;;;;5101454;28;24432;-56
2021/12/30 12:28:39;;;;;;;1.40;1.30;;;;;;;;;;5103486;28;24393;-56
2021/12/30 12:31:08;;;;;;;1.70;1.10;;;;;;;;;;5100913;28;24764;-56
2021/12/30 12:33:35;;;;;;;1.30;1.20;;;;;;;;;;5098172;28;24420;-57
2021/12/30 12:36:07;;;;;;;1.30;1.20;;;;;;;;;;5099489;28;25035;-57
2021/12/30 12:38:40;;;;;;;1.20;0.90;;;;;;;;;;5101419;28;24789;-56
2021/12/30 12:41:16;;;;;;;1.00;1.00;;;;;;;;;;5103233;28;24424;-56
2021/12/30 12:43:41;;;;;;;2.30;1.20;;;;;;;;;;5101889;28;25194;-57
2021/12/30 12:46:06;;;;;;;1.20;1.10;;;;;;;;;;5099572;28;24614;-56
2021/12/30 12:48:33;;;;;;;2.00;1.10;;;;;;;;;;5097999;28;24420;-57
2021/12/30 12:51:07;;;;;;;1.30;1.10;;;;;;;;;;5097239;28;24389;-56
2021/12/30 12:53:32;;;;;;;1.30;1.20;;;;;;;;;;5081001;28;24394;-57
2021/12/30 12:55:58;;;;;;;1.13;1.02;;;;;;;;;;5082932;28;24375;-57
2021/12/30 12:58:25;;;;;;;1.20;1.10;;;;;;;;;;5082735;28;25080;-56
2021/12/30 13:00:50;;;;;;;1.27;0.90;;;;;;;;;;5076893;28;24398;-57
2021/12/30 13:03:16;;;;;;;1.00;0.90;;;;;;;;;;5077472;28;24429;-57
2021/12/30 13:05:52;;;;;;;1.33;1.20;;;;;;;;;;5099349;28;24417;-56
2021/12/30 13:08:18;;;;;;;0.82;0.82;;;;;;;;;;5102965;28;24411;-57
2021/12/30 13:10:43;;;;;;;1.10;0.90;;;;;;;;;;5101160;28;24409;-56
2021/12/30 13:13:08;;;;;;;1.00;1.00;;;;;;;;;;5099536;28;24486;-57
2021/12/30 13:15:40;;;;;;;1.20;1.10;;;;;;;;;;5098452;28;25012;-56
2021/12/30 13:18:15;;;;;;;1.35;1.20;;;;;;;;;;5102174;28;24474;-56
2021/12/30 13:20:41;;;;;;;1.48;1.17;;;;;;;;;;5102823;28;24945;-56
2021/12/30 13:23:06;;;;;;;1.25;1.15;;;;;;;;;;5098877;28;24524;-57
2021/12/30 13:25:31;;;;;;;1.10;1.00;;;;;;;;;;5099443;28;25290;-56
2021/12/30 13:28:02;;;;;;;1.17;0.90;;;;;;;;;;5098302;28;25486;-57
2021/12/30 13:30:27;;;;;;;1.30;1.20;;;;;;;;;;5102642;28;24406;-56
2021/12/30 13:32:53;;;;;;;2.10;1.10;;;;;;;;;;5100756;28;24503;-57
2021/12/30 13:35:26;;;;;;;1.03;0.90;;;;;;;;;;5102815;28;24398;-57
2021/12/30 13:37:52;;;;;;;0.88;0.88;;;;;;;;;;5099353;28;24531;-56
2021/12/30 13:40:19;;;;;;;1.00;0.90;;;;;;;;;;5096462;28;24437;-56
2021/12/30 13:42:50;;;;;;;1.13;1.03;;;;;;;;;;5100704;28;25094;-56
2021/12/30 13:45:16;;;;;;;0.95;0.85;;;;;;;;;;5102480;28;24409;-55
2021/12/30 13:47:42;;;;;;;0.70;0.70;;;;;;;;;;5101068;28;24907;-56
2021/12/30 13:50:11;;;;;;;1.08;0.80;;;;;;;;;;5097017;28;24413;-56
2021/12/30 13:52:38;;;;;;;2.30;1.30;;;;;;;;;;5098214;28;25141;-56
2021/12/30 13:55:12;;;;;;;1.10;1.00;;;;;;;;;;5100656;28;24931;-56
2021/12/30 13:57:38;;;;;;;1.20;1.10;;;;;;;;;;5100207;28;24752;-56
2021/12/30 14:00:07;;;;;;;1.20;1.10;;;;;;;;;;5103407;28;24413;-56
2021/12/30 14:02:32;;;;;;;1.20;0.73;;;;;;;;;;5105983;28;24524;-56
2021/12/30 14:05:06;;;;;;;0.73;0.73;;;;;;;;;;5100604;28;24552;-56
2021/12/30 14:07:32;;;;;;;1.30;1.00;;;;;;;;;;5102104;28;24509;-56
2021/12/30 14:09:57;;;;;;;1.20;0.93;;;;;;;;;;5105388;28;25001;-57
2021/12/30 14:12:22;;;;;;;0.80;0.80;;;;;;;;;;5105556;28;24424;-56
2021/12/30 14:14:48;;;;;;;0.90;0.90;;;;;;;;;;5102629;28;24752;-56
2021/12/30 14:17:16;;;;;;;1.13;1.03;;;;;;;;;;5100413;28;24413;-57
2021/12/30 14:19:41;;;;;;;1.40;1.30;;;;;;;;;;5104219;28;24500;-57
2021/12/30 14:22:07;;;;;;;1.20;1.10;;;;;;;;;;5105376;28;25057;-57
2021/12/30 14:24:33;;;;;;;1.00;1.00;;;;;;;;;;5105688;28;25110;-57
2021/12/30 14:27:04;;;;;;;1.15;1.00;;;;;;;;;;5104112;28;24433;-56
2021/12/30 14:29:33;;;;;;;1.00;1.00;;;;;;;;;;5102016;28;24386;-57
2021/12/30 14:32:00;;;;;;;1.10;1.00;;;;;;;;;;5103296;28;24435;-57